sensor_id;sensor_type;location;lat;lon;timestamp;pressure;altitude;pressure_sealevel;temperature;humidity
55351;BME280;62194;49.480;10.986;2023-02-28T00:00:05;99128.63;;;-3.15;75.26
55351;BME280;62194;49.480;10.986;2023-02-28T00:00:16;99129.91;;;-3.17;75.23
55351;BME280;62194;49.480;10.986;2023-02-28T00:00:22;99131.28;;;-3.15;75.48
55351;BME280;62194;49.480;10.986;2023-02-28T00:00:28;99120.88;;;-3.16;75.67
55351;BME280;62194;49.480;10.986;2023-02-28T00:00:34;99126.19;;;-3.16;75.64
55351;BME280;62194;49.480;10.986;2023-02-28T00:00:40;99132.56;;;-3.17;75.32
55351;BME280;62194;49.480;10.986;2023-02-28T00:00:46;99132.56;;;-3.17;75.60
55351;BME280;62194;49.480;10.986;2023-02-28T00:00:51;99128.28;;;-3.18;75.50
55351;BME280;62194;49.480;10.986;2023-02-28T00:00:56;99135.00;;;-3.16;75.37
55351;BME280;62194;49.480;10.986;2023-02-28T00:01:02;99130.72;;;-3.17;75.53
55351;BME280;62194;49.480;10.986;2023-02-28T00:01:07;99127.00;;;-3.16;75.38
55351;BME280;62194;49.480;10.986;2023-02-28T00:01:13;99126.19;;;-3.16;75.42
55351;BME280;62194;49.480;10.986;2023-02-28T00:01:21;99123.88;;;-3.13;75.43
55351;BME280;62194;49.480;10.986;2023-02-28T00:01:27;99130.13;;;-3.07;75.42
55351;BME280;62194;49.480;10.986;2023-02-28T00:01:33;99126.63;;;-3.08;75.04
55351;BME280;62194;49.480;10.986;2023-02-28T00:01:38;99130.69;;;-3.05;74.57
55351;BME280;62194;49.480;10.986;2023-02-28T00:01:44;99126.16;;;-3.04;74.47
55351;BME280;62194;49.480;10.986;2023-02-28T00:01:49;99135.81;;;-3.03;74.48
55351;BME280;62194;49.480;10.986;2023-02-28T00:01:55;99130.22;;;-3.02;74.37
55351;BME280;62194;49.480;10.986;2023-02-28T00:02:00;99121.41;;;-3.02;74.37
55351;BME280;62194;49.480;10.986;2023-02-28T00:02:05;99130.34;;;-2.97;74.43
55351;BME280;62194;49.480;10.986;2023-02-28T00:02:11;99125.56;;;-2.95;74.32
55351;BME280;62194;49.480;10.986;2023-02-28T00:02:16;99133.13;;;-2.92;74.32
55351;BME280;62194;49.480;10.986;2023-02-28T00:02:24;99129.16;;;-2.89;74.15
55351;BME280;62194;49.480;10.986;2023-02-28T00:02:30;99124.09;;;-2.91;74.09
55351;BME280;62194;49.480;10.986;2023-02-28T00:02:39;99130.44;;;-2.92;73.59
55351;BME280;62194;49.480;10.986;2023-02-28T00:02:45;99127.22;;;-2.94;73.74
55351;BME280;62194;49.480;10.986;2023-02-28T00:02:51;99121.53;;;-2.97;73.92
55351;BME280;62194;49.480;10.986;2023-02-28T00:02:56;99129.53;;;-2.97;74.11
55351;BME280;62194;49.480;10.986;2023-02-28T00:03:03;99124.91;;;-3.02;73.80
55351;BME280;62194;49.480;10.986;2023-02-28T00:03:08;99127.09;;;-2.99;73.97
55351;BME280;62194;49.480;10.986;2023-02-28T00:03:14;99128.16;;;-3.00;74.22
55351;BME280;62194;49.480;10.986;2023-02-28T00:03:19;99120.63;;;-3.03;74.13
55351;BME280;62194;49.480;10.986;2023-02-28T00:03:24;99132.09;;;-3.02;74.19
55351;BME280;62194;49.480;10.986;2023-02-28T00:03:29;99129.28;;;-2.96;74.12
55351;BME280;62194;49.480;10.986;2023-02-28T00:03:35;99122.91;;;-2.95;74.11
55351;BME280;62194;49.480;10.986;2023-02-28T00:03:40;99118.97;;;-2.92;74.13
55351;BME280;62194;49.480;10.986;2023-02-28T00:03:45;99124.63;;;-2.89;74.00
55351;BME280;62194;49.480;10.986;2023-02-28T00:03:51;99127.56;;;-2.90;73.76
55351;BME280;62194;49.480;10.986;2023-02-28T00:03:56;99124.88;;;-2.90;73.77
55351;BME280;62194;49.480;10.986;2023-02-28T00:04:02;99126.16;;;-2.93;74.09
55351;BME280;62194;49.480;10.986;2023-02-28T00:04:07;99128.84;;;-2.93;74.43
55351;BME280;62194;49.480;10.986;2023-02-28T00:04:14;99123.75;;;-2.94;74.11
55351;BME280;62194;49.480;10.986;2023-02-28T00:04:19;99127.69;;;-2.97;73.80
55351;BME280;62194;49.480;10.986;2023-02-28T00:04:27;99130.56;;;-2.98;73.83
55351;BME280;62194;49.480;10.986;2023-02-28T00:04:32;99123.63;;;-2.99;74.19
55351;BME280;62194;49.480;10.986;2023-02-28T00:04:41;99128.38;;;-3.01;74.06
55351;BME280;62194;49.480;10.986;2023-02-28T00:04:46;99125.16;;;-3.03;74.25
55351;BME280;62194;49.480;10.986;2023-02-28T00:04:58;99128.50;;;-2.96;74.19
55351;BME280;62194;49.480;10.986;2023-02-28T00:05:08;99121.28;;;-2.96;73.87
55351;BME280;62194;49.480;10.986;2023-02-28T00:05:18;99126.63;;;-2.96;73.59
55351;BME280;62194;49.480;10.986;2023-02-28T00:05:28;99118.88;;;-2.97;73.58
55351;BME280;62194;49.480;10.986;2023-02-28T00:05:35;99122.81;;;-3.00;73.32
55351;BME280;62194;49.480;10.986;2023-02-28T00:05:41;99122.00;;;-3.00;73.59
55351;BME280;62194;49.480;10.986;2023-02-28T00:05:47;99118.16;;;-3.04;73.57
55351;BME280;62194;49.480;10.986;2023-02-28T00:05:52;99122.47;;;-3.03;73.85
55351;BME280;62194;49.480;10.986;2023-02-28T00:05:58;99120.84;;;-3.04;73.87
55351;BME280;62194;49.480;10.986;2023-02-28T00:06:07;99122.22;;;-3.02;73.96
55351;BME280;62194;49.480;10.986;2023-02-28T00:06:13;99124.91;;;-3.02;74.02
55351;BME280;62194;49.480;10.986;2023-02-28T00:06:23;99126.88;;;-2.97;73.99
55351;BME280;62194;49.480;10.986;2023-02-28T00:06:29;99116.91;;;-3.02;73.74
55351;BME280;62194;49.480;10.986;2023-02-28T00:06:35;99120.94;;;-2.99;73.80
55351;BME280;62194;49.480;10.986;2023-02-28T00:06:43;99123.16;;;-2.96;73.75
55351;BME280;62194;49.480;10.986;2023-02-28T00:06:51;99126.97;;;-2.92;74.51
55351;BME280;62194;49.480;10.986;2023-02-28T00:07:00;99115.38;;;-2.98;74.68
55351;BME280;62194;49.480;10.986;2023-02-28T00:07:05;99123.16;;;-2.96;74.35
55351;BME280;62194;49.480;10.986;2023-02-28T00:07:10;99125.81;;;-2.96;74.39
55351;BME280;62194;49.480;10.986;2023-02-28T00:07:24;99128.72;;;-2.98;73.65
55351;BME280;62194;49.480;10.986;2023-02-28T00:07:33;99123.03;;;-3.01;74.03
55351;BME280;62194;49.480;10.986;2023-02-28T00:07:42;99125.00;;;-2.97;74.19
55351;BME280;62194;49.480;10.986;2023-02-28T00:07:48;99122.91;;;-2.95;73.84
55351;BME280;62194;49.480;10.986;2023-02-28T00:07:59;99123.50;;;-2.93;73.65
55351;BME280;62194;49.480;10.986;2023-02-28T00:08:04;99127.31;;;-2.89;73.68
55351;BME280;62194;49.480;10.986;2023-02-28T00:08:12;99116.63;;;-2.89;73.39
55351;BME280;62194;49.480;10.986;2023-02-28T00:08:18;99115.81;;;-2.89;73.36
55351;BME280;62194;49.480;10.986;2023-02-28T00:08:23;99122.78;;;-2.88;73.23
55351;BME280;62194;49.480;10.986;2023-02-28T00:08:37;99129.16;;;-2.89;73.38
55351;BME280;62194;49.480;10.986;2023-02-28T00:08:43;99120.34;;;-2.90;73.32
55351;BME280;62194;49.480;10.986;2023-02-28T00:08:51;99124.09;;;-2.91;73.64
55351;BME280;62194;49.480;10.986;2023-02-28T00:09:02;99124.88;;;-2.90;73.64
55351;BME280;62194;49.480;10.986;2023-02-28T00:09:09;99121.97;;;-2.89;73.57
55351;BME280;62194;49.480;10.986;2023-02-28T00:09:18;99127.78;;;-2.92;73.61
55351;BME280;62194;49.480;10.986;2023-02-28T00:09:23;99115.16;;;-2.96;73.68
55351;BME280;62194;49.480;10.986;2023-02-28T00:09:34;99127.31;;;-2.89;73.65
55351;BME280;62194;49.480;10.986;2023-02-28T00:09:39;99127.31;;;-2.89;73.59
55351;BME280;62194;49.480;10.986;2023-02-28T00:09:47;99117.34;;;-2.93;73.42
55351;BME280;62194;49.480;10.986;2023-02-28T00:10:00;99125.91;;;-2.91;73.55
55351;BME280;62194;49.480;10.986;2023-02-28T00:10:15;99124.88;;;-2.90;73.61
55351;BME280;62194;49.480;10.986;2023-02-28T00:10:29;99123.16;;;-2.96;73.50
55351;BME280;62194;49.480;10.986;2023-02-28T00:10:38;99117.47;;;-3.00;73.34
55351;BME280;62194;49.480;10.986;2023-02-28T00:10:44;99119.34;;;-3.00;73.75
55351;BME280;62194;49.480;10.986;2023-02-28T00:10:49;99125.16;;;-3.03;73.70
55351;BME280;62194;49.480;10.986;2023-02-28T00:10:54;99119.00;;;-3.04;73.98
55351;BME280;62194;49.480;10.986;2023-02-28T00:11:14;99122.94;;;-3.07;73.94
55351;BME280;62194;49.480;10.986;2023-02-28T00:11:25;99124.47;;;-3.11;74.10
55351;BME280;62194;49.480;10.986;2023-02-28T00:11:30;99118.53;;;-3.13;74.14
55351;BME280;62194;49.480;10.986;2023-02-28T00:11:35;99116.34;;;-3.16;74.47
55351;BME280;62194;49.480;10.986;2023-02-28T00:11:42;99112.88;;;-3.16;74.45
55351;BME280;62194;49.480;10.986;2023-02-28T00:11:51;99121.69;;;-3.16;74.37
55351;BME280;62194;49.480;10.986;2023-02-28T00:11:56;99123.75;;;-3.18;74.58
55351;BME280;62194;49.480;10.986;2023-02-28T00:12:03;99120.28;;;-3.18;74.64
55351;BME280;62194;49.480;10.986;2023-02-28T00:12:25;99124.94;;;-3.14;74.43
55351;BME280;62194;49.480;10.986;2023-02-28T00:12:34;99119.00;;;-3.16;74.16
55351;BME280;62194;49.480;10.986;2023-02-28T00:12:40;99120.06;;;-3.17;74.27
55351;BME280;62194;49.480;10.986;2023-02-28T00:12:55;99126.66;;;-3.19;74.39
55351;BME280;62194;49.480;10.986;2023-02-28T00:13:06;99118.88;;;-3.09;74.33
55351;BME280;62194;49.480;10.986;2023-02-28T00:13:12;99123.50;;;-3.04;74.20
55351;BME280;62194;49.480;10.986;2023-02-28T00:13:22;99121.09;;;-3.06;73.78
55351;BME280;62194;49.480;10.986;2023-02-28T00:13:31;99124.09;;;-3.02;73.94
55351;BME280;62194;49.480;10.986;2023-02-28T00:13:45;99120.94;;;-2.99;74.12
55351;BME280;62194;49.480;10.986;2023-02-28T00:13:53;99118.63;;;-2.96;73.74
55351;BME280;62194;49.480;10.986;2023-02-28T00:14:01;99125.34;;;-2.93;73.79
55351;BME280;62194;49.480;10.986;2023-02-28T00:14:07;99120.25;;;-2.95;73.76
55351;BME280;62194;49.480;10.986;2023-02-28T00:14:12;99123.75;;;-2.94;73.67
55351;BME280;62194;49.480;10.986;2023-02-28T00:14:17;99130.91;;;-2.95;73.67
55351;BME280;62194;49.480;10.986;2023-02-28T00:14:26;99121.28;;;-2.96;73.81
55351;BME280;62194;49.480;10.986;2023-02-28T00:14:31;99126.97;;;-2.92;73.76
55351;BME280;62194;49.480;10.986;2023-02-28T00:14:36;99125.91;;;-2.91;73.87
55351;BME280;62194;49.480;10.986;2023-02-28T00:14:46;99127.56;;;-2.90;73.84
55351;BME280;62194;49.480;10.986;2023-02-28T00:14:52;99128.03;;;-2.93;73.50
55351;BME280;62194;49.480;10.986;2023-02-28T00:14:57;99124.75;;;-2.95;73.73
55351;BME280;62194;49.480;10.986;2023-02-28T00:15:08;99115.03;;;-3.01;73.92
55351;BME280;62194;49.480;10.986;2023-02-28T00:15:23;99118.16;;;-3.04;73.63
55351;BME280;62194;49.480;10.986;2023-02-28T00:15:32;99127.00;;;-3.04;73.86
55351;BME280;62194;49.480;10.986;2023-02-28T00:15:41;99117.94;;;-3.03;73.65
55351;BME280;62194;49.480;10.986;2023-02-28T00:15:46;99119.09;;;-2.99;73.82
55351;BME280;62194;49.480;10.986;2023-02-28T00:16:19;99118.75;;;-3.02;73.70
55351;BME280;62194;49.480;10.986;2023-02-28T00:16:24;99121.09;;;-3.06;73.78
55351;BME280;62194;49.480;10.986;2023-02-28T00:16:43;99128.28;;;-3.07;74.01
55351;BME280;62194;49.480;10.986;2023-02-28T00:16:54;99123.06;;;-3.13;74.01
55351;BME280;62194;49.480;10.986;2023-02-28T00:17:00;99114.72;;;-3.17;74.13
55351;BME280;62194;49.480;10.986;2023-02-28T00:17:08;99119.00;;;-3.16;74.34
55351;BME280;62194;49.480;10.986;2023-02-28T00:17:16;99118.41;;;-3.18;74.17
55351;BME280;62194;49.480;10.986;2023-02-28T00:17:26;99122.13;;;-3.19;74.48
55351;BME280;62194;49.480;10.986;2023-02-28T00:17:36;99118.88;;;-3.21;74.60
55351;BME280;62194;49.480;10.986;2023-02-28T00:17:45;99121.78;;;-3.22;74.50
55351;BME280;62194;49.480;10.986;2023-02-28T00:17:56;99123.41;;;-3.21;74.76
55351;BME280;62194;49.480;10.986;2023-02-28T00:18:02;99119.94;;;-3.22;74.79
55351;BME280;62194;49.480;10.986;2023-02-28T00:18:10;99120.19;;;-3.23;74.82
55351;BME280;62194;49.480;10.986;2023-02-28T00:18:16;99125.53;;;-3.23;74.63
55351;BME280;62194;49.480;10.986;2023-02-28T00:18:22;99119.72;;;-3.20;74.84
55351;BME280;62194;49.480;10.986;2023-02-28T00:18:27;99114.13;;;-3.19;74.88
55351;BME280;62194;49.480;10.986;2023-02-28T00:18:33;99123.28;;;-3.15;74.61
55351;BME280;62194;49.480;10.986;2023-02-28T00:18:43;99120.75;;;-3.10;74.47
55351;BME280;62194;49.480;10.986;2023-02-28T00:18:49;99127.47;;;-3.07;74.47
55351;BME280;62194;49.480;10.986;2023-02-28T00:18:58;99118.16;;;-3.04;74.31
55351;BME280;62194;49.480;10.986;2023-02-28T00:19:03;99114.47;;;-3.03;74.25
55351;BME280;62194;49.480;10.986;2023-02-28T00:19:09;99122.81;;;-3.00;74.11
55351;BME280;62194;49.480;10.986;2023-02-28T00:19:18;99127.56;;;-3.02;73.95
55351;BME280;62194;49.480;10.986;2023-02-28T00:19:28;99120.38;;;-3.01;74.00
55351;BME280;62194;49.480;10.986;2023-02-28T00:19:37;99116.91;;;-3.02;74.02
55351;BME280;62194;49.480;10.986;2023-02-28T00:19:44;99117.34;;;-3.05;73.63
55351;BME280;62194;49.480;10.986;2023-02-28T00:19:50;99122.13;;;-3.07;73.69
55351;BME280;62194;49.480;10.986;2023-02-28T00:19:56;99115.41;;;-3.10;73.97
55351;BME280;62194;49.480;10.986;2023-02-28T00:20:24;99119.00;;;-3.04;74.06
55351;BME280;62194;49.480;10.986;2023-02-28T00:20:30;99120.38;;;-3.01;74.15
55351;BME280;62194;49.480;10.986;2023-02-28T00:20:36;99122.22;;;-3.02;74.00
55351;BME280;62194;49.480;10.986;2023-02-28T00:20:47;99120.38;;;-3.01;74.18
55351;BME280;62194;49.480;10.986;2023-02-28T00:20:57;99121.41;;;-3.02;74.75
55351;BME280;62194;49.480;10.986;2023-02-28T00:21:03;99122.81;;;-3.00;74.39
55351;BME280;62194;49.480;10.986;2023-02-28T00:21:17;99115.84;;;-3.01;74.13
55351;BME280;62194;49.480;10.986;2023-02-28T00:21:24;99117.94;;;-3.03;74.26
55351;BME280;62194;49.480;10.986;2023-02-28T00:21:36;99120.03;;;-3.05;74.24
55351;BME280;62194;49.480;10.986;2023-02-28T00:21:46;99121.31;;;-3.08;74.30
55351;BME280;62194;49.480;10.986;2023-02-28T00:21:59;99117.03;;;-3.09;74.30
55351;BME280;62194;49.480;10.986;2023-02-28T00:22:05;99123.16;;;-3.08;74.21
55351;BME280;62194;49.480;10.986;2023-02-28T00:22:10;99117.81;;;-3.08;74.20
55351;BME280;62194;49.480;10.986;2023-02-28T00:22:21;99116.56;;;-3.06;74.20
55351;BME280;62194;49.480;10.986;2023-02-28T00:22:27;99117.34;;;-3.05;74.13
55351;BME280;62194;49.480;10.986;2023-02-28T00:22:36;99122.69;;;-3.05;73.97
55351;BME280;62194;49.480;10.986;2023-02-28T00:22:46;99117.81;;;-3.08;73.94
55351;BME280;62194;49.480;10.986;2023-02-28T00:22:54;99115.63;;;-3.11;73.89
55351;BME280;62194;49.480;10.986;2023-02-28T00:23:00;99121.22;;;-3.13;74.11
55351;BME280;62194;49.480;10.986;2023-02-28T00:23:05;99120.16;;;-3.12;74.25
55351;BME280;62194;49.480;10.986;2023-02-28T00:23:11;99116.09;;;-3.14;74.05
55351;BME280;62194;49.480;10.986;2023-02-28T00:23:22;99118.28;;;-3.11;74.22
55351;BME280;62194;49.480;10.986;2023-02-28T00:23:30;99120.41;;;-3.13;74.12
55351;BME280;62194;49.480;10.986;2023-02-28T00:23:36;99117.94;;;-3.15;74.29
55351;BME280;62194;49.480;10.986;2023-02-28T00:23:41;99117.72;;;-3.13;74.34
55351;BME280;62194;49.480;10.986;2023-02-28T00:23:47;99113.41;;;-3.14;74.40
55351;BME280;62194;49.480;10.986;2023-02-28T00:23:58;99120.97;;;-3.11;74.20
55351;BME280;62194;49.480;10.986;2023-02-28T00:24:09;99117.28;;;-3.10;74.16
55351;BME280;62194;49.480;10.986;2023-02-28T00:24:20;99118.53;;;-3.13;74.44
55351;BME280;62194;49.480;10.986;2023-02-28T00:24:26;99117.03;;;-3.09;74.62
55351;BME280;62194;49.480;10.986;2023-02-28T00:24:31;99117.03;;;-3.09;74.49
55351;BME280;62194;49.480;10.986;2023-02-28T00:24:42;99114.13;;;-3.07;74.40
55351;BME280;62194;49.480;10.986;2023-02-28T00:24:48;99111.81;;;-3.03;74.17
55351;BME280;62194;49.480;10.986;2023-02-28T00:24:53;99114.47;;;-3.03;74.20
55351;BME280;62194;49.480;10.986;2023-02-28T00:25:20;99116.81;;;-3.07;74.11
55351;BME280;62194;49.480;10.986;2023-02-28T00:25:28;99115.41;;;-3.10;74.05
55351;BME280;62194;49.480;10.986;2023-02-28T00:25:35;99121.56;;;-3.09;74.05
55351;BME280;62194;49.480;10.986;2023-02-28T00:25:41;99118.06;;;-3.10;74.40
55351;BME280;62194;49.480;10.986;2023-02-28T00:25:50;99118.88;;;-3.09;73.73
55351;BME280;62194;49.480;10.986;2023-02-28T00:25:58;99117.59;;;-3.07;74.08
55351;BME280;62194;49.480;10.986;2023-02-28T00:26:04;99123.97;;;-3.08;74.13
55351;BME280;62194;49.480;10.986;2023-02-28T00:26:13;99123.97;;;-3.08;74.13
55351;BME280;62194;49.480;10.986;2023-02-28T00:26:20;99115.16;;;-3.08;74.27
55351;BME280;62194;49.480;10.986;2023-02-28T00:26:28;99123.50;;;-3.04;74.11
55351;BME280;62194;49.480;10.986;2023-02-28T00:27:03;99113.66;;;-3.04;74.02
55351;BME280;62194;49.480;10.986;2023-02-28T00:27:09;99115.50;;;-3.04;74.00
55351;BME280;62194;49.480;10.986;2023-02-28T00:27:17;99117.59;;;-3.07;74.04
55351;BME280;62194;49.480;10.986;2023-02-28T00:27:25;99122.94;;;-3.07;73.89
55351;BME280;62194;49.480;10.986;2023-02-28T00:27:36;99120.50;;;-3.08;74.38
55351;BME280;62194;49.480;10.986;2023-02-28T00:27:43;99118.63;;;-3.08;74.46
55351;BME280;62194;49.480;10.986;2023-02-28T00:27:52;99116.81;;;-3.07;74.35
55351;BME280;62194;49.480;10.986;2023-02-28T00:28:02;99114.69;;;-3.05;74.01
55351;BME280;62194;49.480;10.986;2023-02-28T00:28:10;99120.63;;;-3.03;73.96
55351;BME280;62194;49.480;10.986;2023-02-28T00:28:15;99117.13;;;-3.03;73.95
55351;BME280;62194;49.480;10.986;2023-02-28T00:28:28;99119.00;;;-3.04;74.25
55351;BME280;62194;49.480;10.986;2023-02-28T00:28:34;99112.59;;;-3.03;74.06
55351;BME280;62194;49.480;10.986;2023-02-28T00:28:39;99114.47;;;-3.03;73.94
55351;BME280;62194;49.480;10.986;2023-02-28T00:28:47;99112.59;;;-3.03;73.99
55351;BME280;62194;49.480;10.986;2023-02-28T00:28:57;99118.16;;;-3.04;74.55
55351;BME280;62194;49.480;10.986;2023-02-28T00:29:03;99117.59;;;-3.07;74.37
55351;BME280;62194;49.480;10.986;2023-02-28T00:29:09;99114.94;;;-3.07;74.15
55351;BME280;62194;49.480;10.986;2023-02-28T00:29:15;99109.00;;;-3.09;74.00
55351;BME280;62194;49.480;10.986;2023-02-28T00:29:20;99123.75;;;-3.06;74.14
55351;BME280;62194;49.480;10.986;2023-02-28T00:29:43;99114.69;;;-3.05;74.32
55351;BME280;62194;49.480;10.986;2023-02-28T00:29:51;99112.03;;;-3.05;74.12
55351;BME280;62194;49.480;10.986;2023-02-28T00:29:59;99119.22;;;-3.06;73.90
55351;BME280;62194;49.480;10.986;2023-02-28T00:30:06;99106.34;;;-3.09;74.06
55351;BME280;62194;49.480;10.986;2023-02-28T00:30:14;99111.69;;;-3.09;74.27
55351;BME280;62194;49.480;10.986;2023-02-28T00:30:22;99112.16;;;-3.12;74.36
55351;BME280;62194;49.480;10.986;2023-02-28T00:30:31;99119.69;;;-3.09;74.33
55351;BME280;62194;49.480;10.986;2023-02-28T00:30:39;99110.28;;;-3.11;74.51
55351;BME280;62194;49.480;10.986;2023-02-28T00:30:44;99108.78;;;-3.07;74.46
55351;BME280;62194;49.480;10.986;2023-02-28T00:31:10;99113.41;;;-3.02;73.87
55351;BME280;62194;49.480;10.986;2023-02-28T00:31:24;99113.16;;;-3.01;73.73
55351;BME280;62194;49.480;10.986;2023-02-28T00:31:30;99119.09;;;-2.99;73.86
55351;BME280;62194;49.480;10.986;2023-02-28T00:31:38;99110.16;;;-3.04;73.80
55351;BME280;62194;49.480;10.986;2023-02-28T00:31:43;99110.75;;;-3.02;73.90
55351;BME280;62194;49.480;10.986;2023-02-28T00:31:56;99114.47;;;-3.03;73.78
55351;BME280;62194;49.480;10.986;2023-02-28T00:32:03;99108.06;;;-3.02;73.92
55351;BME280;62194;49.480;10.986;2023-02-28T00:32:11;99113.16;;;-3.01;73.93
55351;BME280;62194;49.480;10.986;2023-02-28T00:32:18;99123.84;;;-3.01;73.79
55351;BME280;62194;49.480;10.986;2023-02-28T00:32:26;99116.81;;;-3.07;73.87
55351;BME280;62194;49.480;10.986;2023-02-28T00:32:32;99117.03;;;-3.09;73.98
55351;BME280;62194;49.480;10.986;2023-02-28T00:32:40;99118.16;;;-3.04;73.99
55351;BME280;62194;49.480;10.986;2023-02-28T00:32:49;99113.88;;;-3.06;74.28
55351;BME280;62194;49.480;10.986;2023-02-28T00:32:57;99118.16;;;-3.04;74.11
55351;BME280;62194;49.480;10.986;2023-02-28T00:33:05;99110.16;;;-3.04;74.17
55351;BME280;62194;49.480;10.986;2023-02-28T00:33:12;99109.59;;;-3.07;74.08
55351;BME280;62194;49.480;10.986;2023-02-28T00:33:20;99107.63;;;-3.11;74.24
55351;BME280;62194;49.480;10.986;2023-02-28T00:33:27;99118.06;;;-3.10;74.26
55351;BME280;62194;49.480;10.986;2023-02-28T00:33:35;99113.19;;;-3.13;74.30
55351;BME280;62194;49.480;10.986;2023-02-28T00:33:40;99122.81;;;-3.12;74.48
55351;BME280;62194;49.480;10.986;2023-02-28T00:33:46;99110.19;;;-3.16;74.69
55351;BME280;62194;49.480;10.986;2023-02-28T00:33:54;99111.81;;;-3.15;74.42
55351;BME280;62194;49.480;10.986;2023-02-28T00:34:02;99118.75;;;-3.14;74.46
55351;BME280;62194;49.480;10.986;2023-02-28T00:34:10;99110.19;;;-3.16;74.45
55351;BME280;62194;49.480;10.986;2023-02-28T00:34:15;99112.16;;;-3.12;74.63
55351;BME280;62194;49.480;10.986;2023-02-28T00:34:24;99118.06;;;-3.10;74.45
55351;BME280;62194;49.480;10.986;2023-02-28T00:34:29;99116.22;;;-3.09;74.50
55351;BME280;62194;49.480;10.986;2023-02-28T00:34:35;99108.47;;;-3.11;74.43
55351;BME280;62194;49.480;10.986;2023-02-28T00:34:42;99114.94;;;-3.07;74.68
55351;BME280;62194;49.480;10.986;2023-02-28T00:34:50;99121.66;;;-3.04;74.55
55351;BME280;62194;49.480;10.986;2023-02-28T00:34:56;99111.81;;;-3.03;74.08
55351;BME280;62194;49.480;10.986;2023-02-28T00:35:04;99116.09;;;-3.02;74.29
55351;BME280;62194;49.480;10.986;2023-02-28T00:35:10;99115.50;;;-3.04;74.12
55351;BME280;62194;49.480;10.986;2023-02-28T00:35:25;99121.66;;;-3.04;74.20
55351;BME280;62194;49.480;10.986;2023-02-28T00:35:40;99115.63;;;-2.99;73.93
55351;BME280;62194;49.480;10.986;2023-02-28T00:36:05;99109.22;;;-2.98;73.96
55351;BME280;62194;49.480;10.986;2023-02-28T00:36:11;99111.22;;;-3.06;74.05
55351;BME280;62194;49.480;10.986;2023-02-28T00:36:17;99104.03;;;-3.05;74.03
55351;BME280;62194;49.480;10.986;2023-02-28T00:36:22;99114.47;;;-3.03;74.11
55351;BME280;62194;49.480;10.986;2023-02-28T00:36:27;99123.75;;;-3.06;74.28
55351;BME280;62194;49.480;10.986;2023-02-28T00:36:35;99110.06;;;-3.10;74.16
55351;BME280;62194;49.480;10.986;2023-02-28T00:36:52;99114.34;;;-3.09;74.40
55351;BME280;62194;49.480;10.986;2023-02-28T00:37:00;99114.13;;;-3.07;74.58
55351;BME280;62194;49.480;10.986;2023-02-28T00:37:09;99116.34;;;-3.04;74.25
55351;BME280;62194;49.480;10.986;2023-02-28T00:37:32;99113.16;;;-3.01;74.23
55351;BME280;62194;49.480;10.986;2023-02-28T00:37:39;99115.28;;;-3.03;74.05
55351;BME280;62194;49.480;10.986;2023-02-28T00:37:58;99120.84;;;-3.04;74.08
55351;BME280;62194;49.480;10.986;2023-02-28T00:38:07;99117.13;;;-3.03;74.29
55351;BME280;62194;49.480;10.986;2023-02-28T00:38:13;99110.16;;;-3.04;74.10
55351;BME280;62194;49.480;10.986;2023-02-28T00:38:19;99116.91;;;-3.02;74.25
55351;BME280;62194;49.480;10.986;2023-02-28T00:38:24;99117.69;;;-3.01;74.36
55351;BME280;62194;49.480;10.986;2023-02-28T00:38:30;99115.03;;;-3.01;74.28
55351;BME280;62194;49.480;10.986;2023-02-28T00:38:36;99120.16;;;-3.00;74.26
55351;BME280;62194;49.480;10.986;2023-02-28T00:38:45;99114.47;;;-3.03;74.11
55351;BME280;62194;49.480;10.986;2023-02-28T00:38:50;99119.22;;;-3.06;74.05
55351;BME280;62194;49.480;10.986;2023-02-28T00:38:58;99121.41;;;-3.02;74.22
55351;BME280;62194;49.480;10.986;2023-02-28T00:39:06;99115.28;;;-3.03;74.24
55351;BME280;62194;49.480;10.986;2023-02-28T00:39:14;99115.84;;;-3.01;74.12
55351;BME280;62194;49.480;10.986;2023-02-28T00:39:22;99119.69;;;-2.97;73.89
55351;BME280;62194;49.480;10.986;2023-02-28T00:39:39;99113.16;;;-3.01;74.20
55351;BME280;62194;49.480;10.986;2023-02-28T00:39:46;99104.59;;;-3.03;73.86
55351;BME280;62194;49.480;10.986;2023-02-28T00:39:51;99109.34;;;-3.05;73.92
55351;BME280;62194;49.480;10.986;2023-02-28T00:40:03;99119.09;;;-2.99;74.05
55351;BME280;62194;49.480;10.986;2023-02-28T00:40:14;99113.53;;;-2.97;74.19
55351;BME280;62194;49.480;10.986;2023-02-28T00:40:20;99118.88;;;-2.97;73.98
55351;BME280;62194;49.480;10.986;2023-02-28T00:40:26;99119.91;;;-2.98;74.11
55351;BME280;62194;49.480;10.986;2023-02-28T00:40:31;99119.09;;;-2.99;73.99
55351;BME280;62194;49.480;10.986;2023-02-28T00:40:40;99119.91;;;-2.98;74.04
55351;BME280;62194;49.480;10.986;2023-02-28T00:40:45;99123.84;;;-3.01;73.99
55351;BME280;62194;49.480;10.986;2023-02-28T00:40:54;99120.38;;;-3.01;74.08
55351;BME280;62194;49.480;10.986;2023-02-28T00:41:01;99114.69;;;-3.05;74.18
55351;BME280;62194;49.480;10.986;2023-02-28T00:41:10;99122.81;;;-3.00;74.14
55351;BME280;62194;49.480;10.986;2023-02-28T00:41:15;99117.94;;;-3.03;74.05
55351;BME280;62194;49.480;10.986;2023-02-28T00:41:28;99124.91;;;-3.02;74.14
55351;BME280;62194;49.480;10.986;2023-02-28T00:41:36;99115.28;;;-3.03;74.06
55351;BME280;62194;49.480;10.986;2023-02-28T00:41:44;99115.75;;;-3.06;74.12
55351;BME280;62194;49.480;10.986;2023-02-28T00:41:49;99124.34;;;-3.04;74.16
55351;BME280;62194;49.480;10.986;2023-02-28T00:42:03;99119.22;;;-3.06;74.33
55351;BME280;62194;49.480;10.986;2023-02-28T00:42:09;99118.28;;;-2.99;74.09
55351;BME280;62194;49.480;10.986;2023-02-28T00:42:15;99121.75;;;-2.99;74.00
55351;BME280;62194;49.480;10.986;2023-02-28T00:42:23;99115.63;;;-2.99;74.17
55351;BME280;62194;49.480;10.986;2023-02-28T00:42:34;99127.91;;;-2.98;74.14
55351;BME280;62194;49.480;10.986;2023-02-28T00:42:43;99121.66;;;-3.04;74.24
55351;BME280;62194;49.480;10.986;2023-02-28T00:42:51;99118.75;;;-3.02;74.37
55351;BME280;62194;49.480;10.986;2023-02-28T00:42:56;99120.84;;;-3.04;74.23
55351;BME280;62194;49.480;10.986;2023-02-28T00:43:02;99126.41;;;-3.06;74.26
55351;BME280;62194;49.480;10.986;2023-02-28T00:43:08;99117.03;;;-3.09;74.34
55351;BME280;62194;49.480;10.986;2023-02-28T00:43:14;99122.69;;;-3.05;74.25